Time;durP1;ratioP1;P1;durP2;ratioP2;P2;SDS_P1;SDS_P2;PMS_P1;PMS_P2;Temp;Humidity;BMP_temperature;BMP_pressure;BME280_temperature;BME280_humidity;BME280_pressure;Samples;Min_cycle;Max_cycle;Signal;HPM_P1;HPM_P2
2023/10/28 00:00:43;;;;;;;48.95;24.73;;;;;;;;;;5048379;28;20136;-71
2023/10/28 00:03:09;;;;;;;52.05;23.75;;;;;;;;;;5049236;28;20092;-70
2023/10/28 00:05:35;;;;;;;57.28;23.75;;;;;;;;;;5068598;28;20041;-70
2023/10/28 00:08:03;;;;;;;53.95;25.45;;;10.60;99.90;;;;;;5043150;28;20044;-70
2023/10/28 00:10:31;;;;;;;51.53;23.27;;;10.70;99.90;;;;;;5065320;28;20050;-69
2023/10/28 00:12:58;;;;;;;48.78;21.83;;;;;;;;;;5066540;28;20059;-69
2023/10/28 00:15:24;;;;;;;55.80;25.33;;;;;;;;;;5063903;28;20575;-69
2023/10/28 00:17:50;;;;;;;51.63;23.83;;;;;;;;;;5043298;28;20103;-70
2023/10/28 00:20:17;;;;;;;52.75;24.98;;;;;;;;;;5051731;28;20040;-69
2023/10/28 00:22:47;;;;;;;55.67;23.67;;;10.50;99.90;;;;;;5064166;28;20046;-69
2023/10/28 00:25:13;;;;;;;55.50;24.35;;;;;;;;;;5062985;28;20045;-70
2023/10/28 00:27:40;;;;;;;55.88;25.45;;;;;;;;;;5040023;28;20132;-69
2023/10/28 00:30:07;;;;;;;56.75;26.80;;;10.50;99.90;;;;;;5042850;28;20041;-69
2023/10/28 00:32:33;;;;;;;64.97;26.00;;;;;;;;;;5067595;28;20052;-70
2023/10/28 00:35:00;;;;;;;56.50;25.83;;;;;;;;;;5063745;28;20412;-69
2023/10/28 00:37:26;;;;;;;59.08;27.30;;;;;;;;;;5051180;28;20047;-70
2023/10/28 00:39:52;;;;;;;49.80;22.98;;;10.60;99.90;;;;;;5040131;28;20037;-69
2023/10/28 00:42:18;;;;;;;51.25;22.95;;;;;;;;;;5059984;28;20049;-69
2023/10/28 00:44:44;;;;;;;55.08;23.65;;;;;;;;;;5036262;28;20048;-69
2023/10/28 00:47:12;;;;;;;48.58;19.73;;;;;;;;;;5059099;28;20052;-69
2023/10/28 00:49:38;;;;;;;40.97;20.33;;;;;;;;;;5049658;28;20141;-70
2023/10/28 00:52:05;;;;;;;49.45;23.35;;;;;;;;;;5042684;28;20411;-69
2023/10/28 00:54:31;;;;;;;48.88;23.30;;;;;;;;;;5062996;28;20517;-69
2023/10/28 00:56:57;;;;;;;53.08;24.25;;;10.30;99.90;;;;;;5041808;28;20066;-69
2023/10/28 00:59:27;;;;;;;49.85;21.33;;;;;;;;;;5062364;28;20041;-71
2023/10/28 01:01:53;;;;;;;50.92;21.95;;;;;;;;;;5056650;28;20113;-69
2023/10/28 01:04:20;;;;;;;51.13;22.67;;;;;;;;;;5061565;28;20076;-69
2023/10/28 01:06:46;;;;;;;49.85;23.90;;;;;;;;;;5044390;28;20048;-69
2023/10/28 01:09:12;;;;;;;47.17;22.42;;;;;;;;;;5065457;28;20548;-69
2023/10/28 01:11:39;;;;;;;44.00;21.42;;;10.30;99.90;;;;;;5061368;28;20044;-69
2023/10/28 01:14:06;;;;;;;48.97;21.67;;;;;;;;;;5040941;28;20048;-69
2023/10/28 01:16:32;;;;;;;48.95;21.73;;;;;;;;;;5063715;28;20499;-69
2023/10/28 01:18:57;;;;;;;51.78;21.90;;;10.20;99.90;;;;;;5047754;28;20043;-69
2023/10/28 01:21:24;;;;;;;50.30;22.85;;;;;;;;;;5050964;28;20044;-69
2023/10/28 01:23:50;;;;;;;42.60;20.58;;;;;;;;;;5060694;28;20040;-69
2023/10/28 01:26:16;;;;;;;43.35;19.80;;;;;;;;;;5024538;28;20055;-70
2023/10/28 01:28:42;;;;;;;44.92;20.95;;;;;;;;;;5065855;28;20044;-70
2023/10/28 01:31:08;;;;;;;49.08;18.40;;;;;;;;;;5042795;28;20047;-69
2023/10/28 01:33:34;;;;;;;45.55;18.88;;;;;;;;;;5047577;28;20032;-69
2023/10/28 01:36:00;;;;;;;43.53;19.80;;;;;;;;;;5038029;28;20044;-69
2023/10/28 01:38:26;;;;;;;39.50;20.10;;;;;;;;;;5040290;28;20056;-69
2023/10/28 01:40:52;;;;;;;45.85;20.40;;;;;;;;;;5036783;28;20060;-71
2023/10/28 01:43:19;;;;;;;43.47;18.48;;;;;;;;;;5048302;28;20043;-69
2023/10/28 01:45:45;;;;;;;40.17;19.15;;;;;;;;;;5058113;28;20040;-69
2023/10/28 01:48:12;;;;;;;37.58;19.23;;;;;;;;;;5036539;28;20526;-69
2023/10/28 01:50:38;;;;;;;36.78;17.25;;;;;;;;;;5036364;28;20057;-69
2023/10/28 01:53:03;;;;;;;34.17;17.45;;;10.10;99.90;;;;;;5064761;28;20029;-69
2023/10/28 01:55:30;;;;;;;42.65;19.85;;;;;;;;;;5062687;28;20033;-70
2023/10/28 01:57:56;;;;;;;40.45;17.90;;;;;;;;;;5043034;28;20076;-69
2023/10/28 02:00:22;;;;;;;38.08;17.85;;;;;;;;;;5041205;28;20045;-69
2023/10/28 02:02:50;;;;;;;35.67;16.65;;;9.90;99.90;;;;;;5057615;28;20045;-69
2023/10/28 02:05:16;;;;;;;31.88;17.45;;;;;;;;;;5059931;28;20071;-69
2023/10/28 02:07:42;;;;;;;38.72;17.75;;;;;;;;;;5040794;28;20045;-69
2023/10/28 02:10:09;;;;;;;35.35;17.40;;;;;;;;;;5040352;28;20047;-69
2023/10/28 02:12:35;;;;;;;35.22;17.40;;;;;;;;;;5039980;28;20132;-69
2023/10/28 02:15:08;;;;;;;38.25;16.73;;;;;;;;;;5025436;28;20052;-70
2023/10/28 02:17:38;;;;;;;36.88;17.63;;;;;;;;;;5042289;28;20032;-69
2023/10/28 02:20:04;;;;;;;35.72;15.80;;;;;;;;;;5041275;28;20068;-69
2023/10/28 02:22:34;;;;;;;43.22;18.13;;;;;;;;;;5045889;28;20052;-69
2023/10/28 02:25:00;;;;;;;41.72;18.80;;;;;;;;;;5062737;28;20060;-69
2023/10/28 02:27:26;;;;;;;37.70;16.48;;;;;;;;;;5044953;28;20049;-69
2023/10/28 02:29:52;;;;;;;37.38;18.77;;;;;;;;;;5037810;28;20061;-69
2023/10/28 02:32:19;;;;;;;35.15;16.83;;;;;;;;;;5043716;28;20132;-70
2023/10/28 02:34:44;;;;;;;35.03;15.45;;;9.80;99.90;;;;;;5045590;28;20128;-69
2023/10/28 02:37:10;;;;;;;42.72;18.00;;;;;;;;;;5047130;28;20050;-69
2023/10/28 02:39:37;;;;;;;38.15;18.30;;;;;;;;;;5060137;28;20041;-69
2023/10/28 02:42:04;;;;;;;30.98;16.13;;;;;;;;;;5072628;28;20119;-69
2023/10/28 02:44:30;;;;;;;36.45;17.63;;;;;;;;;;5073240;28;20036;-69
2023/10/28 02:46:56;;;;;;;32.28;15.75;;;;;;;;;;5047964;28;20044;-69
2023/10/28 02:49:22;;;;;;;30.88;14.63;;;;;;;;;;5038920;28;20072;-69
2023/10/28 02:51:49;;;;;;;25.45;13.63;;;;;;;;;;5035102;28;20041;-69
2023/10/28 02:54:14;;;;;;;34.42;15.68;;;9.70;99.90;;;;;;5043077;28;20467;-69
2023/10/28 02:56:40;;;;;;;30.67;14.55;;;;;;;;;;5045747;28;20144;-69
2023/10/28 02:59:07;;;;;;;29.23;14.85;;;;;;;;;;5046253;28;20036;-69
2023/10/28 03:01:39;;;;;;;31.30;13.65;;;;;;;;;;5063535;28;20121;-69
2023/10/28 03:04:06;;;;;;;26.08;13.60;;;;;;;;;;5058271;28;20048;-69
2023/10/28 03:06:35;;;;;;;33.35;15.30;;;;;;;;;;5047623;28;20340;-69
2023/10/28 03:09:01;;;;;;;33.42;15.85;;;;;;;;;;5045102;28;20128;-69
2023/10/28 03:11:27;;;;;;;30.67;14.98;;;;;;;;;;5068993;28;20056;-69
2023/10/28 03:13:53;;;;;;;26.45;13.23;;;;;;;;;;5065016;28;20668;-69
2023/10/28 03:16:19;;;;;;;28.27;14.57;;;;;;;;;;5048106;28;20048;-69
2023/10/28 03:18:45;;;;;;;31.25;15.50;;;9.60;99.90;;;;;;5069376;28;20369;-69
2023/10/28 03:21:12;;;;;;;27.13;13.60;;;;;;;;;;5046080;28;20056;-70
2023/10/28 03:23:38;;;;;;;30.33;13.88;;;;;;;;;;5045966;28;20542;-69
2023/10/28 03:26:07;;;;;;;29.98;14.00;;;;;;;;;;5043524;28;20051;-69
2023/10/28 03:28:33;;;;;;;31.73;15.15;;;;;;;;;;5045768;28;20052;-69
2023/10/28 03:30:59;;;;;;;27.05;13.77;;;;;;;;;;5039098;28;20531;-69
2023/10/28 03:33:26;;;;;;;28.65;15.27;;;;;;;;;;5047612;28;20044;-69
2023/10/28 03:35:52;;;;;;;31.55;15.90;;;;;;;;;;5068261;28;20040;-69
2023/10/28 03:38:18;;;;;;;32.78;14.68;;;;;;;;;;5066399;28;20489;-69
2023/10/28 03:40:44;;;;;;;30.50;13.68;;;;;;;;;;5044226;28;20448;-69
2023/10/28 03:43:10;;;;;;;34.80;15.50;;;;;;;;;;5066122;28;20075;-69
2023/10/28 03:45:37;;;;;;;28.08;12.88;;;;;;;;;;5049108;28;20085;-69
2023/10/28 03:48:03;;;;;;;35.60;15.30;;;;;;;;;;5061747;28;20056;-70
2023/10/28 03:50:30;;;;;;;28.20;14.90;;;;;;;;;;5050272;28;20094;-69
2023/10/28 03:52:57;;;;;;;25.77;14.27;;;;;;;;;;5044495;28;20048;-69
2023/10/28 03:55:23;;;;;;;29.30;14.55;;;;;;;;;;5057152;28;20044;-69
2023/10/28 03:57:49;;;;;;;28.67;14.63;;;;;;;;;;5069297;28;20430;-69
2023/10/28 04:00:16;;;;;;;25.00;14.82;;;;;;;;;;5054685;28;20036;-69
2023/10/28 04:02:42;;;;;;;29.13;14.60;;;;;;;;;;5048361;28;20078;-69
2023/10/28 04:05:08;;;;;;;28.35;15.13;;;;;;;;;;5068964;28;20040;-69
2023/10/28 04:07:34;;;;;;;33.22;15.27;;;;;;;;;;5059832;28;20054;-69
2023/10/28 04:10:07;;;;;;;31.02;15.65;;;;;;;;;;5070864;28;20043;-70
2023/10/28 04:12:33;;;;;;;29.95;15.65;;;;;;;;;;5023351;28;20480;-69
2023/10/28 04:14:59;;;;;;;29.40;15.50;;;;;;;;;;5062947;28;20075;-69
2023/10/28 04:17:25;;;;;;;32.60;16.88;;;;;;;;;;5049167;28;20119;-69
2023/10/28 04:19:51;;;;;;;30.85;16.55;;;;;;;;;;5067950;28;20048;-70
2023/10/28 04:22:17;;;;;;;30.70;15.10;;;;;;;;;;5045457;28;20049;-69
2023/10/28 04:24:44;;;;;;;28.15;15.80;;;;;;;;;;5048933;28;20137;-69
2023/10/28 04:27:10;;;;;;;36.55;16.70;;;;;;;;;;5050179;28;20048;-69
2023/10/28 04:29:36;;;;;;;43.33;16.52;;;;;;;;;;5045088;28;20401;-70
2023/10/28 04:32:02;;;;;;;35.17;15.88;;;;;;;;;;5050018;28;20048;-70
2023/10/28 04:34:28;;;;;;;31.67;16.35;;;;;;;;;;5056398;28;20045;-69
2023/10/28 04:36:54;;;;;;;38.42;17.95;;;;;;;;;;5054671;28;20114;-69
2023/10/28 04:39:23;;;;;;;32.97;17.42;;;;;;;;;;5054540;28;20044;-69
2023/10/28 04:41:50;;;;;;;31.95;15.85;;;9.70;99.90;;;;;;5053597;28;20049;-69
2023/10/28 04:44:16;;;;;;;30.98;16.00;;;;;;;;;;5040749;28;20532;-69
2023/10/28 04:46:42;;;;;;;33.47;17.05;;;;;;;;;;5041462;28;20155;-70
2023/10/28 04:49:10;;;;;;;35.85;16.88;;;;;;;;;;5066424;28;20060;-69
2023/10/28 04:51:36;;;;;;;32.63;15.13;;;;;;;;;;5052726;28;20044;-69
2023/10/28 04:54:03;;;;;;;35.92;16.80;;;;;;;;;;5041352;28;20043;-69
2023/10/28 04:56:29;;;;;;;35.88;15.98;;;;;;;;;;5059573;28;20491;-69
2023/10/28 04:58:55;;;;;;;30.50;17.30;;;9.90;99.90;;;;;;5041166;28;20640;-69
2023/10/28 05:01:21;;;;;;;37.88;17.45;;;;;;;;;;5062900;28;20051;-69
2023/10/28 05:03:49;;;;;;;37.70;17.30;;;;;;;;;;5061101;28;20420;-70
2023/10/28 05:06:15;;;;;;;38.67;17.50;;;;;;;;;;5045234;28;21049;-69
2023/10/28 05:08:41;;;;;;;35.58;16.52;;;;;;;;;;5041309;28;20077;-69
2023/10/28 05:11:08;;;;;;;32.92;16.92;;;;;;;;;;5041336;28;20094;-69
2023/10/28 05:13:34;;;;;;;36.70;17.08;;;;;;;;;;5060415;28;20102;-69
2023/10/28 05:16:01;;;;;;;37.65;17.48;;;10.10;99.90;;;;;;5047109;28;20041;-69
2023/10/28 05:18:27;;;;;;;44.13;18.60;;;;;;;;;;5046279;28;20044;-69
2023/10/28 05:20:53;;;;;;;39.47;17.83;;;;;;;;;;5050924;28;20826;-69
2023/10/28 05:23:20;;;;;;;43.60;17.90;;;;;;;;;;5048929;28;20070;-69
2023/10/28 05:25:46;;;;;;;37.70;17.55;;;;;;;;;;5046762;28;20056;-70
2023/10/28 05:28:12;;;;;;;39.90;18.75;;;;;;;;;;5043944;28;20157;-69
2023/10/28 05:30:38;;;;;;;38.80;18.42;;;;;;;;;;5059861;28;20071;-69
2023/10/28 05:33:04;;;;;;;43.83;18.83;;;;;;;;;;5063030;28;20073;-69
2023/10/28 05:35:30;;;;;;;34.30;17.70;;;;;;;;;;5064883;28;20050;-69
2023/10/28 05:37:58;;;;;;;36.50;17.95;;;;;;;;;;5068817;28;20040;-69
2023/10/28 05:40:24;;;;;;;36.78;18.02;;;;;;;;;;5045433;28;20040;-70
2023/10/28 05:42:50;;;;;;;40.03;17.63;;;;;;;;;;5045286;28;20117;-70
2023/10/28 05:45:15;;;;;;;30.58;15.70;;;;;;;;;;5042897;28;20507;-69
2023/10/28 05:47:42;;;;;;;29.83;16.15;;;;;;;;;;5045178;28;20055;-69
2023/10/28 05:50:07;;;;;;;37.10;16.67;;;10.20;99.90;;;;;;5040360;28;20071;-69
2023/10/28 05:52:38;;;;;;;33.17;15.50;;;;;;;;;;5047807;28;20052;-69
2023/10/28 05:55:04;;;;;;;39.10;16.13;;;;;;;;;;5069583;28;20040;-70
2023/10/28 05:57:30;;;;;;;32.40;15.15;;;;;;;;;;5045013;28;20050;-69
2023/10/28 05:59:56;;;;;;;27.75;15.18;;;;;;;;;;5040540;28;20037;-69
2023/10/28 06:02:24;;;;;;;28.85;14.57;;;;;;;;;;5033464;28;20045;-69
2023/10/28 06:04:51;;;;;;;30.65;15.27;;;;;;;;;;5046901;28;20059;-69
2023/10/28 06:07:16;;;;;;;31.02;13.63;;;10.30;99.90;;;;;;5060252;28;20049;-69
2023/10/28 06:09:43;;;;;;;31.42;16.15;;;;;;;;;;5049177;28;20054;-69
2023/10/28 06:12:09;;;;;;;30.45;14.48;;;;;;;;;;5042984;28;20080;-69
2023/10/28 06:14:35;;;;;;;24.75;13.43;;;;;;;;;;5044021;28;20110;-69
2023/10/28 06:17:00;;;;;;;21.90;11.57;;;10.40;99.90;;;;;;5047137;28;20036;-69
2023/10/28 06:19:26;;;;;;;25.20;12.60;;;;;;;;;;5047105;28;20045;-69
2023/10/28 06:21:52;;;;;;;22.77;12.35;;;;;;;;;;5044520;28;20041;-71
2023/10/28 06:24:18;;;;;;;24.30;12.93;;;;;;;;;;5041108;28;20052;-71
2023/10/28 06:26:45;;;;;;;22.60;12.27;;;10.40;99.90;;;;;;5050841;28;20486;-70
2023/10/28 06:29:12;;;;;;;28.02;13.40;;;;;;;;;;5044134;28;20053;-70
2023/10/28 06:31:39;;;;;;;20.45;12.73;;;;;;;;;;5039923;28;20508;-68
2023/10/28 06:34:05;;;;;;;27.15;11.73;;;;;;;;;;5045263;28;20075;-69
2023/10/28 06:36:33;;;;;;;23.33;11.45;;;;;;;;;;5066107;28;20041;-67
2023/10/28 06:38:59;;;;;;;25.67;12.32;;;;;;;;;;5048738;28;20391;-68
2023/10/28 06:41:25;;;;;;;21.98;10.80;;;;;;;;;;5045913;28;20045;-68
2023/10/28 06:43:55;;;;;;;27.42;11.88;;;;;;;;;;5048982;28;20044;-67
2023/10/28 06:46:21;;;;;;;25.58;11.82;;;;;;;;;;5064045;28;20037;-67
2023/10/28 06:48:47;;;;;;;21.27;11.65;;;;;;;;;;5063811;28;20474;-67
2023/10/28 06:51:12;;;;;;;20.50;11.48;;;10.30;99.90;;;;;;5060023;28;20076;-67
2023/10/28 06:53:42;;;;;;;23.17;10.40;;;;;;;;;;5071748;28;20124;-67
2023/10/28 06:56:08;;;;;;;17.13;9.90;;;;;;;;;;5049407;28;20044;-67
2023/10/28 06:58:34;;;;;;;21.35;10.70;;;;;;;;;;5046287;28;20178;-68
2023/10/28 07:01:00;;;;;;;17.25;9.88;;;;;;;;;;5045872;28;20045;-68
2023/10/28 07:03:27;;;;;;;22.15;11.20;;;10.30;99.90;;;;;;5051631;28;20071;-69
2023/10/28 07:05:54;;;;;;;14.30;9.95;;;;;;;;;;5047261;28;20081;-68
2023/10/28 07:08:20;;;;;;;20.58;10.90;;;;;;;;;;5049756;28;20392;-68
2023/10/28 07:10:47;;;;;;;14.70;8.70;;;;;;;;;;5064855;28;20523;-68
2023/10/28 07:13:13;;;;;;;19.27;9.15;;;10.20;99.90;;;;;;5045872;28;20052;-69
2023/10/28 07:15:39;;;;;;;17.38;10.07;;;;;;;;;;5043376;28;20052;-72
2023/10/28 07:18:07;;;;;;;14.10;7.80;;;;;;;;;;5044495;28;20059;-67
2023/10/28 07:20:33;;;;;;;16.30;8.98;;;;;;;;;;5049035;28;20056;-67
2023/10/28 07:23:02;;;;;;;15.27;7.85;;;;;;;;;;5060500;28;20067;-67
2023/10/28 07:25:28;;;;;;;16.00;9.30;;;10.20;99.90;;;;;;5065741;28;20044;-68
2023/10/28 07:27:54;;;;;;;16.77;8.38;;;;;;;;;;5040277;28;20105;-69
2023/10/28 07:30:22;;;;;;;12.10;7.82;;;;;;;;;;5044257;28;20076;-68
2023/10/28 07:32:48;;;;;;;14.88;8.88;;;;;;;;;;5042027;28;20048;-69
2023/10/28 07:35:16;;;;;;;14.00;8.00;;;;;;;;;;5061390;28;20051;-71
2023/10/28 07:37:42;;;;;;;14.95;8.45;;;10.50;99.90;;;;;;5061649;28;20053;-68
2023/10/28 07:40:11;;;;;;;13.80;8.20;;;;;;;;;;5045435;28;20124;-69
2023/10/28 07:42:37;;;;;;;13.55;7.72;;;;;;;;;;5063683;28;20412;-68
2023/10/28 07:45:04;;;;;;;11.82;7.72;;;10.60;99.90;;;;;;5032598;28;20161;-68
2023/10/28 07:47:31;;;;;;;10.82;7.65;;;;;;;;;;5042806;28;20163;-68
2023/10/28 07:49:57;;;;;;;11.88;7.88;;;;;;;;;;5037315;28;20167;-69
2023/10/28 07:52:23;;;;;;;13.45;8.20;;;;;;;;;;5045353;28;20059;-68
2023/10/28 07:54:49;;;;;;;13.93;7.53;;;;;;;;;;5042295;28;20044;-68
2023/10/28 07:57:15;;;;;;;13.50;7.47;;;;;;;;;;5041293;28;20345;-68
2023/10/28 07:59:42;;;;;;;17.15;7.78;;;;;;;;;;5065113;28;20120;-69
2023/10/28 08:02:07;;;;;;;14.48;8.15;;;11.00;99.90;;;;;;5040263;28;20060;-68
2023/10/28 08:04:33;;;;;;;16.42;6.80;;;;;;;;;;5024281;28;20044;-68
2023/10/28 08:07:00;;;;;;;12.95;7.55;;;;;;;;;;5047024;28;20444;-68
2023/10/28 08:09:28;;;;;;;13.88;8.10;;;;;;;;;;5041846;28;20547;-68
2023/10/28 08:11:54;;;;;;;11.52;6.75;;;;;;;;;;5044178;28;20070;-68
2023/10/28 08:14:20;;;;;;;14.27;8.45;;;;;;;;;;5039762;28;20033;-67
2023/10/28 08:16:46;;;;;;;12.43;6.82;;;;;;;;;;5046302;28;20083;-69
2023/10/28 08:19:12;;;;;;;8.45;6.47;;;;;;;;;;5046057;28;20045;-68
2023/10/28 08:21:38;;;;;;;14.00;6.78;;;10.90;99.90;;;;;;5064388;28;20089;-68
2023/10/28 08:24:05;;;;;;;9.57;6.68;;;;;;;;;;5066235;28;20058;-68
2023/10/28 08:26:31;;;;;;;11.20;6.25;;;;;;;;;;5046736;28;20451;-68
2023/10/28 08:29:00;;;;;;;9.57;6.45;;;;;;;;;;5048242;28;20048;-68
2023/10/28 08:31:28;;;;;;;9.85;5.65;;;;;;;;;;5063708;28;20130;-69
2023/10/28 08:33:54;;;;;;;11.40;6.15;;;;;;;;;;5046824;28;20122;-68
2023/10/28 08:36:20;;;;;;;10.35;6.68;;;;;;;;;;5040268;28;20041;-68
2023/10/28 08:38:49;;;;;;;12.65;6.70;;;;;;;;;;5070227;28;20032;-69
2023/10/28 08:41:18;;;;;;;11.68;5.93;;;;;;;;;;5065398;28;20067;-68
2023/10/28 08:43:45;;;;;;;10.68;5.43;;;;;;;;;;5045303;28;20129;-68
2023/10/28 08:46:11;;;;;;;9.93;5.75;;;;;;;;;;5058685;28;20524;-68
2023/10/28 08:48:38;;;;;;;10.18;5.30;;;;;;;;;;5037798;28;20056;-69
2023/10/28 08:51:07;;;;;;;13.25;6.32;;;;;;;;;;5056696;28;20080;-68
2023/10/28 08:53:34;;;;;;;11.15;6.10;;;;;;;;;;5051929;28;20131;-68
2023/10/28 08:56:01;;;;;;;11.35;6.30;;;;;;;;;;5066374;28;20036;-68
2023/10/28 08:58:28;;;;;;;17.90;5.90;;;11.00;99.90;;;;;;5041041;28;20412;-68
2023/10/28 09:00:58;;;;;;;10.63;5.43;;;;;;;;;;5044296;28;20040;-69
2023/10/28 09:03:25;;;;;;;12.52;5.72;;;;;;;;;;5043090;28;20071;-68
2023/10/28 09:05:52;;;;;;;9.23;6.22;;;;;;;;;;5044684;28;20049;-68
2023/10/28 09:08:23;;;;;;;12.43;5.95;;;;;;;;;;5038506;28;20504;-68
2023/10/28 09:10:49;;;;;;;8.73;5.65;;;;;;;;;;5041184;28;20131;-68
2023/10/28 09:13:16;;;;;;;10.18;5.20;;;;;;;;;;5064332;28;20048;-68
2023/10/28 09:15:42;;;;;;;8.38;4.82;;;;;;;;;;5032998;28;20566;-68
2023/10/28 09:18:08;;;;;;;8.07;5.20;;;;;;;;;;5057138;28;20036;-68
2023/10/28 09:20:37;;;;;;;9.73;5.38;;;;;;;;;;5041293;28;20121;-67
2023/10/28 09:23:03;;;;;;;8.82;5.32;;;;;;;;;;5043355;28;20059;-68
2023/10/28 09:25:30;;;;;;;7.47;4.63;;;;;;;;;;5060434;28;20048;-67
2023/10/28 09:27:56;;;;;;;10.38;5.78;;;;;;;;;;5046969;28;20492;-68
2023/10/28 09:30:22;;;;;;;11.45;5.47;;;;;;;;;;5065372;28;20047;-68
2023/10/28 09:32:48;;;;;;;12.77;5.60;;;;;;;;;;5046664;28;20045;-68
2023/10/28 09:35:14;;;;;;;11.73;5.88;;;11.50;99.90;;;;;;5050622;28;20039;-68
2023/10/28 09:37:40;;;;;;;9.27;4.90;;;;;;;;;;5056889;28;20424;-69
2023/10/28 09:40:07;;;;;;;8.55;3.83;;;;;;;;;;5054946;28;20040;-68
2023/10/28 09:42:35;;;;;;;8.77;4.80;;;11.70;99.90;;;;;;5044435;28;20057;-68
2023/10/28 09:45:05;;;;;;;10.43;4.40;;;;;;;;;;5033957;28;20049;-68
2023/10/28 09:47:50;;;;;;;7.65;4.20;;;;;;;;;;5060201;28;20054;-68
2023/10/28 09:50:16;;;;;;;6.43;4.32;;;;;;;;;;5059837;28;20064;-68
2023/10/28 09:52:44;;;;;;;9.57;5.00;;;;;;;;;;5063911;28;20450;-68
2023/10/28 09:55:13;;;;;;;7.63;4.57;;;11.70;99.90;;;;;;5043525;28;20045;-68
2023/10/28 09:57:40;;;;;;;9.43;5.18;;;;;;;;;;5062425;28;20514;-68
2023/10/28 10:00:11;;;;;;;11.18;5.07;;;;;;;;;;5066276;28;20044;-68
2023/10/28 10:03:06;;;;;;;11.85;4.35;;;11.60;99.90;;;;;;5037732;28;20045;-68
2023/10/28 10:05:45;;;;;;;5.78;4.07;;;11.80;99.90;;;;;;5042321;28;20057;-68
2023/10/28 10:08:24;;;;;;;12.25;4.53;;;;;;;;;;5045581;28;20054;-69
2023/10/28 10:10:55;;;;;;;10.55;4.65;;;11.80;99.90;;;;;;5041615;28;20049;-68
2023/10/28 10:13:22;;;;;;;8.98;5.07;;;;;;;;;;5066985;28;20036;-69
2023/10/28 10:15:56;;;;;;;8.68;4.20;;;;;;;;;;5064625;28;20044;-68
2023/10/28 10:18:33;;;;;;;9.73;4.28;;;;;;;;;;5042314;28;20044;-68
2023/10/28 10:21:04;;;;;;;6.78;4.35;;;11.60;99.90;;;;;;5056706;28;20044;-68
2023/10/28 10:23:43;;;;;;;7.03;4.20;;;11.70;99.90;;;;;;5042226;28;20072;-67
2023/10/28 10:26:20;;;;;;;8.57;4.32;;;;;;;;;;5024076;28;20066;-67
2023/10/28 10:28:46;;;;;;;10.73;4.43;;;;;;;;;;5032916;28;20071;-68
2023/10/28 10:31:13;;;;;;;17.13;4.72;;;;;;;;;;5033705;28;20532;-67
2023/10/28 10:33:39;;;;;;;9.15;4.63;;;;;;;;;;5038441;28;20052;-67
2023/10/28 10:36:09;;;;;;;11.45;4.78;;;;;;;;;;5045990;28;20089;-68
2023/10/28 10:38:35;;;;;;;9.52;4.80;;;;;;;;;;5037721;28;20391;-68
2023/10/28 10:41:02;;;;;;;13.10;4.93;;;;;;;;;;5051775;28;20040;-68
2023/10/28 10:43:32;;;;;;;9.13;4.63;;;;;;;;;;5061193;28;20110;-68
2023/10/28 10:45:58;;;;;;;8.82;3.90;;;;;;;;;;5060044;28;20480;-68
2023/10/28 10:48:25;;;;;;;8.27;4.18;;;12.00;99.90;;;;;;5059599;28;20060;-68
2023/10/28 10:50:52;;;;;;;10.15;4.72;;;;;;;;;;5056647;28;20045;-68
2023/10/28 10:53:18;;;;;;;8.88;3.92;;;;;;;;;;5043940;28;20543;-68
2023/10/28 10:55:44;;;;;;;7.57;3.63;;;;;;;;;;5057090;28;20147;-68
2023/10/28 10:58:10;;;;;;;7.00;4.20;;;;;;;;;;5046721;28;20646;-68
2023/10/28 11:00:37;;;;;;;7.57;4.13;;;12.20;99.90;;;;;;5068501;28;20036;-67
2023/10/28 11:03:03;;;;;;;9.25;3.85;;;;;;;;;;5059311;28;20123;-68
2023/10/28 11:05:32;;;;;;;6.78;2.75;;;;;;;;;;5043103;28;20475;-68
2023/10/28 11:07:58;;;;;;;10.60;3.88;;;;;;;;;;5041803;28;20041;-68
2023/10/28 11:10:25;;;;;;;8.18;4.10;;;;;;;;;;5040860;28;20053;-68
2023/10/28 11:12:52;;;;;;;12.90;4.07;;;;;;;;;;5065781;28;20083;-68
2023/10/28 11:15:21;;;;;;;8.63;4.80;;;;;;;;;;5045519;28;20124;-67
2023/10/28 11:17:48;;;;;;;8.70;3.65;;;;;;;;;;5041711;28;20047;-68
2023/10/28 11:20:19;;;;;;;7.20;2.80;;;;;;;;;;5063566;28;20041;-68
2023/10/28 11:22:46;;;;;;;7.20;3.30;;;;;;;;;;5066683;28;20055;-68
2023/10/28 11:25:11;;;;;;;9.07;3.55;;;12.40;99.90;;;;;;5044959;28;20480;-68
2023/10/28 11:27:38;;;;;;;4.35;2.65;;;;;;;;;;5059848;28;20055;-68
2023/10/28 11:30:05;;;;;;;12.43;3.63;;;;;;;;;;5048346;28;20051;-68
2023/10/28 11:32:37;;;;;;;7.90;3.80;;;12.30;99.90;;;;;;5039150;28;20045;-67
2023/10/28 11:35:03;;;;;;;11.02;3.30;;;;;;;;;;5046648;28;20541;-68
2023/10/28 11:37:29;;;;;;;8.65;3.42;;;;;;;;;;5042918;28;20059;-67
2023/10/28 11:39:55;;;;;;;7.93;3.30;;;;;;;;;;5066381;28;20476;-67
2023/10/28 11:42:21;;;;;;;12.30;3.42;;;;;;;;;;5066148;28;20111;-67
2023/10/28 11:44:49;;;;;;;9.15;2.72;;;;;;;;;;5048965;28;20476;-66
2023/10/28 11:47:15;;;;;;;4.40;3.10;;;12.60;99.90;;;;;;5047372;28;20105;-67
2023/10/28 11:49:41;;;;;;;5.32;3.22;;;;;;;;;;5066602;28;20057;-67
2023/10/28 11:52:09;;;;;;;7.97;3.45;;;12.30;99.90;;;;;;5037883;28;20101;-68
2023/10/28 11:54:35;;;;;;;7.32;2.83;;;;;;;;;;5044182;28;20040;-67
2023/10/28 11:57:01;;;;;;;11.30;3.35;;;;;;;;;;5042062;28;20124;-68
2023/10/28 11:59:27;;;;;;;6.25;4.07;;;12.20;99.90;;;;;;5027901;28;20062;-67
2023/10/28 12:01:53;;;;;;;7.80;3.38;;;12.40;99.90;;;;;;5062377;28;20044;-66
2023/10/28 12:04:22;;;;;;;6.47;3.40;;;;;;;;;;5062781;28;20048;-66
2023/10/28 12:06:48;;;;;;;10.00;3.03;;;12.30;99.90;;;;;;5039041;28;20036;-67
2023/10/28 12:09:14;;;;;;;9.48;3.17;;;;;;;;;;5044346;28;20661;-66
2023/10/28 12:11:40;;;;;;;6.22;2.58;;;;;;;;;;5059171;28;20179;-67
2023/10/28 12:14:07;;;;;;;6.35;2.90;;;;;;;;;;5043359;28;20036;-68
2023/10/28 12:16:35;;;;;;;8.23;2.40;;;;;;;;;;5029029;28;20040;-67
2023/10/28 12:19:02;;;;;;;9.80;3.20;;;;;;;;;;5067110;28;20037;-68
2023/10/28 12:21:28;;;;;;;8.52;3.03;;;;;;;;;;5045391;28;20381;-67
2023/10/28 12:23:55;;;;;;;8.60;2.95;;;;;;;;;;5042010;28;20044;-68
2023/10/28 12:26:21;;;;;;;5.90;3.30;;;;;;;;;;5062689;28;20442;-67
2023/10/28 12:28:48;;;;;;;6.70;2.65;;;;;;;;;;5036768;28;20052;-67
2023/10/28 12:31:14;;;;;;;6.78;2.45;;;;;;;;;;5061871;28;20156;-68
2023/10/28 12:33:40;;;;;;;7.72;2.45;;;;;;;;;;5044855;28;20037;-67
2023/10/28 12:36:08;;;;;;;7.13;2.78;;;;;;;;;;5042549;28;20045;-67
2023/10/28 12:38:34;;;;;;;6.15;2.40;;;13.20;99.90;;;;;;5039720;28;20051;-67
2023/10/28 12:41:00;;;;;;;4.85;2.80;;;;;;;;;;5064078;28;20040;-69
2023/10/28 12:43:27;;;;;;;5.60;2.70;;;;;;;;;;5041608;28;20044;-68
2023/10/28 12:45:54;;;;;;;5.18;2.45;;;;;;;;;;5050165;28;20055;-68
2023/10/28 12:48:20;;;;;;;5.40;2.40;;;13.30;99.90;;;;;;5061085;28;20040;-68
2023/10/28 12:50:46;;;;;;;8.07;2.78;;;;;;;;;;5027370;28;20170;-68
2023/10/28 12:53:12;;;;;;;5.60;1.85;;;;;;;;;;5041036;28;20174;-67
2023/10/28 12:55:38;;;;;;;9.20;2.30;;;;;;;;;;5060141;28;20533;-67
2023/10/28 12:58:03;;;;;;;9.95;2.33;;;13.40;99.90;;;;;;5056228;28;20049;-67
2023/10/28 13:00:29;;;;;;;5.78;1.95;;;;;;;;;;5068494;28;20036;-68
2023/10/28 13:02:55;;;;;;;5.38;2.28;;;;;;;;;;5066175;28;20043;-68
2023/10/28 13:05:21;;;;;;;7.82;2.35;;;;;;;;;;5040680;28;20478;-69
2023/10/28 13:07:47;;;;;;;7.40;2.75;;;;;;;;;;5035781;28;20049;-68
2023/10/28 13:10:13;;;;;;;8.40;2.40;;;;;;;;;;5063474;28;20508;-67
2023/10/28 13:12:39;;;;;;;6.40;2.03;;;13.40;99.90;;;;;;5046277;28;20049;-67
2023/10/28 13:15:07;;;;;;;6.65;2.40;;;;;;;;;;5045363;28;20033;-67
2023/10/28 13:17:33;;;;;;;5.35;2.33;;;;;;;;;;5061257;28;20040;-67
2023/10/28 13:19:59;;;;;;;4.50;1.98;;;;;;;;;;5045623;28;20052;-67
2023/10/28 13:22:25;;;;;;;6.55;1.95;;;13.50;99.90;;;;;;5043368;28;20045;-68
2023/10/28 13:24:51;;;;;;;4.85;1.90;;;;;;;;;;5041139;28;20551;-67
2023/10/28 13:27:17;;;;;;;5.25;2.58;;;;;;;;;;5055818;28;20483;-67
2023/10/28 13:29:43;;;;;;;6.72;2.15;;;;;;;;;;5044038;28;20048;-68
2023/10/28 13:32:10;;;;;;;8.13;2.33;;;;;;;;;;5056678;28;20036;-68
2023/10/28 13:34:38;;;;;;;6.10;2.00;;;;;;;;;;5041742;28;20055;-68
2023/10/28 13:37:04;;;;;;;5.22;2.17;;;;;;;;;;5064652;28;20048;-67
2023/10/28 13:39:30;;;;;;;7.00;2.20;;;;;;;;;;5039112;28;20066;-67
2023/10/28 13:41:56;;;;;;;4.35;2.78;;;;;;;;;;5060333;28;20062;-68
2023/10/28 13:44:22;;;;;;;6.65;3.10;;;;;;;;;;5056079;28;20048;-68
2023/10/28 13:46:48;;;;;;;7.00;2.20;;;13.30;99.90;;;;;;5048079;28;20712;-68
2023/10/28 13:49:15;;;;;;;8.73;1.85;;;;;;;;;;5038866;28;20061;-67
2023/10/28 13:51:41;;;;;;;5.03;2.20;;;;;;;;;;5039825;28;20408;-68
2023/10/28 13:54:09;;;;;;;6.50;2.25;;;;;;;;;;5057475;28;20039;-68
2023/10/28 13:56:35;;;;;;;12.10;2.17;;;;;;;;;;5039110;28;20044;-68
2023/10/28 13:59:03;;;;;;;6.78;2.28;;;13.30;99.90;;;;;;5054423;28;20041;-68
2023/10/28 14:01:29;;;;;;;5.30;1.70;;;13.30;99.90;;;;;;5070141;28;20040;-68
2023/10/28 14:03:55;;;;;;;4.30;2.10;;;;;;;;;;5064997;28;20049;-68
2023/10/28 14:06:21;;;;;;;8.05;2.53;;;;;;;;;;5024549;28;20545;-67